Cranston, Rhode Island
Current Conditions -  °F | °C
As of 2:51 PM on Saturday 25 Oct 2014 (Local Time) from KPVD Reporting Station
Scattered Clouds Scattered Clouds  
Wind Chill: 66°   Ceiling: Unl
Heat Index: 66°   Visibility: 10mi
Dew Point: 40°   Wind: 13mph
Humidity: 38%   Direction: 270°W
Pressure: 29.65"   Gusts: NA
Location:  41.78°N, 71.43°W
Report Text: KPVD 251851Z 27011KT 10SM FEW210 SCT240 SCT300 19/04 A2965 RMK AO2 SLP040 T01890044
Loading
Personal Weather Stations






























Interactive Weather Map
Tropical Storm Tracking
New forecast layout! Learn more

10-Day Weather Forecast

Advertisements
Track Severe Weather on mobile